Time;durP1;ratioP1;P1;durP2;ratioP2;P2;SDS_P1;SDS_P2;PMS_P1;PMS_P2;Temp;Humidity;BMP_temperature;BMP_pressure;BME280_temperature;BME280_humidity;BME280_pressure;Samples;Min_cycle;Max_cycle;Signal;HPM_P1;HPM_P2
2022/01/11 00:01:42;;;;;;;21.35;17.27;;;0.10;99.90;;;;;;4804854;29;20062;-77
2022/01/11 00:04:12;;;;;;;22.15;16.90;;;0.10;99.90;;;;;;4803692;29;20059;-77
2022/01/11 00:06:45;;;;;;;23.67;17.90;;;0.00;99.90;;;;;;4789700;29;20464;-76
2022/01/11 00:09:33;;;;;;;22.10;17.67;;;0.10;99.90;;;;;;4804866;29;20126;-76
2022/01/11 00:11:58;;;;;;;22.73;16.88;;;0.10;99.90;;;;;;4804944;29;20058;-77
2022/01/11 00:14:24;;;;;;;20.75;17.02;;;-0.10;99.90;;;;;;4805162;29;20079;-76
2022/01/11 00:16:50;;;;;;;23.25;16.80;;;0.00;99.90;;;;;;4804135;29;20059;-76
2022/01/11 00:19:15;;;;;;;23.48;17.75;;;0.00;99.90;;;;;;4804730;29;20051;-76
2022/01/11 00:21:49;;;;;;;21.13;16.90;;;0.00;99.90;;;;;;4805201;29;20443;-76
2022/01/11 00:24:29;;;;;;;20.25;16.80;;;-0.10;99.90;;;;;;4789470;29;20125;-76
2022/01/11 00:27:05;;;;;;;25.50;17.70;;;-0.10;99.90;;;;;;4805037;29;20061;-76
2022/01/11 00:29:31;;;;;;;24.17;16.60;;;-0.20;99.90;;;;;;4805943;29;20082;-76
2022/01/11 00:32:02;;;;;;;22.48;16.83;;;-0.20;99.90;;;;;;4776835;29;20043;-76
2022/01/11 00:34:38;;;;;;;22.17;16.85;;;-0.10;99.90;;;;;;4807095;29;20126;-76
2022/01/11 00:37:04;;;;;;;23.75;17.90;;;-0.20;99.90;;;;;;4808094;29;20125;-76
2022/01/11 00:39:30;;;;;;;26.25;18.13;;;-0.10;99.90;;;;;;4807343;29;20134;-76
2022/01/11 00:41:56;;;;;;;23.83;17.15;;;-0.20;99.90;;;;;;4808405;29;20561;-76
2022/01/11 00:44:23;;;;;;;25.02;18.15;;;-0.20;99.90;;;;;;4791750;29;20485;-76
2022/01/11 00:46:49;;;;;;;24.85;17.67;;;-0.20;99.90;;;;;;4808393;29;20454;-76
2022/01/11 00:49:14;;;;;;;26.52;18.02;;;0.00;99.90;;;;;;4807789;29;20051;-77
2022/01/11 00:51:40;;;;;;;25.33;17.55;;;-0.20;99.90;;;;;;4808303;29;20429;-76
2022/01/11 00:54:05;;;;;;;28.70;18.45;;;-0.10;99.90;;;;;;4807846;29;20057;-77
2022/01/11 00:56:31;;;;;;;32.13;18.95;;;-0.10;99.90;;;;;;4807107;29;20447;-76
2022/01/11 00:58:57;;;;;;;26.10;18.48;;;-0.20;99.90;;;;;;4807926;29;20051;-76
2022/01/11 01:01:22;;;;;;;26.20;18.83;;;-0.10;99.90;;;;;;4807488;29;20145;-76
2022/01/11 01:03:48;;;;;;;26.92;17.45;;;-0.10;99.90;;;;;;4806956;29;20111;-76
2022/01/11 01:06:14;;;;;;;28.20;18.70;;;-0.10;99.90;;;;;;4807847;29;20505;-77
2022/01/11 01:08:39;;;;;;;32.53;18.08;;;0.00;99.90;;;;;;4808005;29;20050;-76
2022/01/11 01:11:05;;;;;;;27.70;19.15;;;0.00;99.90;;;;;;4807996;29;20046;-76
2022/01/11 01:13:31;;;;;;;26.40;17.40;;;0.00;99.90;;;;;;4806301;29;20093;-76
2022/01/11 01:15:57;;;;;;;32.42;20.38;;;-0.10;99.90;;;;;;4808060;29;20043;-76
2022/01/11 01:18:26;;;;;;;32.90;19.83;;;0.00;99.90;;;;;;4807429;29;20054;-77
2022/01/11 01:20:52;;;;;;;30.70;20.05;;;-0.10;99.90;;;;;;4807872;29;20051;-76
2022/01/11 01:23:19;;;;;;;33.80;20.10;;;0.10;99.90;;;;;;4806002;29;20151;-76
2022/01/11 01:25:45;;;;;;;28.55;20.63;;;0.10;99.90;;;;;;4807783;29;20100;-76
2022/01/11 01:28:11;;;;;;;30.13;20.00;;;0.00;99.90;;;;;;4807212;29;20447;-76
2022/01/11 01:30:36;;;;;;;31.00;20.85;;;0.00;99.90;;;;;;4806417;29;20054;-76
2022/01/11 01:33:02;;;;;;;32.10;21.45;;;0.00;99.90;;;;;;4807471;29;20119;-76
2022/01/11 01:35:33;;;;;;;29.13;20.83;;;0.10;99.90;;;;;;4806174;29;20128;-76
2022/01/11 01:37:58;;;;;;;;;;;0.10;99.90;;;;;;4805802;29;20383;-76
2022/01/11 01:40:24;;;;;;;35.45;20.48;;;0.00;99.90;;;;;;4805714;29;19936;-76
2022/01/11 01:42:51;;;;;;;34.85;20.70;;;0.10;99.90;;;;;;4806409;29;20050;-77
2022/01/11 01:45:17;;;;;;;33.08;20.15;;;0.00;99.90;;;;;;4805827;29;20163;-77
2022/01/11 01:47:43;;;;;;;30.92;20.15;;;0.00;99.90;;;;;;4807591;29;20055;-76
2022/01/11 01:50:09;;;;;;;31.10;20.35;;;0.00;99.90;;;;;;4807295;29;20090;-76
2022/01/11 01:52:35;;;;;;;29.92;19.85;;;0.10;99.90;;;;;;4806888;29;20051;-76
2022/01/11 01:55:00;;;;;;;29.67;20.45;;;0.10;99.90;;;;;;4790233;29;20530;-77
2022/01/11 01:57:26;;;;;;;29.02;19.77;;;0.10;99.90;;;;;;4804383;29;20063;-76
2022/01/11 01:59:52;;;;;;;32.83;20.20;;;0.00;99.90;;;;;;4806034;29;20046;-76
2022/01/11 02:02:18;;;;;;;29.30;20.70;;;0.10;99.90;;;;;;4805346;29;20452;-77
2022/01/11 02:04:45;;;;;;;30.35;20.17;;;0.00;99.90;;;;;;4806868;29;20059;-77
2022/01/11 02:07:10;;;;;;;30.60;20.20;;;0.10;99.90;;;;;;4805896;29;20051;-77
2022/01/11 02:09:36;;;;;;;33.80;20.10;;;-0.10;99.90;;;;;;4806335;29;20494;-76
2022/01/11 02:12:02;;;;;;;31.55;20.40;;;-0.10;99.90;;;;;;4805877;29;20058;-77
2022/01/11 02:14:27;;;;;;;34.00;20.40;;;0.10;99.90;;;;;;4806434;29;20043;-77
2022/01/11 02:16:56;;;;;;;36.20;21.45;;;0.00;99.90;;;;;;4790773;29;20062;-76
2022/01/11 02:19:22;;;;;;;32.70;21.30;;;-0.10;99.90;;;;;;4806352;29;20398;-77
2022/01/11 02:21:47;;;;;;;32.80;20.25;;;-0.10;99.90;;;;;;4805577;29;20054;-76
2022/01/11 02:24:13;;;;;;;34.72;21.05;;;0.00;99.90;;;;;;4805567;29;20051;-77
2022/01/11 02:26:38;;;;;;;37.85;20.65;;;0.00;99.90;;;;;;4805957;29;20448;-76
2022/01/11 02:29:04;;;;;;;40.50;22.83;;;0.20;99.90;;;;;;4806653;29;20059;-77
2022/01/11 02:31:30;;;;;;;38.85;22.38;;;0.20;99.90;;;;;;4806246;29;20051;-77
2022/01/11 02:33:58;;;;;;;44.15;23.20;;;0.20;99.90;;;;;;4806513;29;20060;-76
2022/01/11 02:36:29;;;;;;;41.78;23.02;;;0.10;99.90;;;;;;4805177;29;20112;-76
2022/01/11 02:38:55;;;;;;;41.75;22.45;;;0.30;99.90;;;;;;4806616;29;20061;-76
2022/01/11 02:41:21;;;;;;;40.60;22.75;;;0.20;99.90;;;;;;4805903;29;20405;-77
2022/01/11 02:43:47;;;;;;;47.75;22.95;;;0.20;99.90;;;;;;4806431;29;20100;-76
2022/01/11 02:46:13;;;;;;;42.50;23.92;;;0.40;99.90;;;;;;4790172;29;20455;-77
2022/01/11 02:48:39;;;;;;;43.22;24.40;;;0.50;99.90;;;;;;4804540;29;20054;-76
2022/01/11 02:51:05;;;;;;;41.50;23.98;;;0.40;99.90;;;;;;4804679;29;20099;-76
2022/01/11 02:53:30;;;;;;;44.63;25.65;;;0.40;99.90;;;;;;4805290;29;20107;-77
2022/01/11 02:55:56;;;;;;;57.90;26.25;;;0.50;99.90;;;;;;4806213;29;20428;-76
2022/01/11 02:58:22;;;;;;;56.30;26.45;;;0.60;99.90;;;;;;4789877;29;20047;-76
2022/01/11 03:00:48;;;;;;;43.70;25.70;;;0.50;99.90;;;;;;4805844;29;20505;-76
2022/01/11 03:03:22;;;;;;;51.22;24.95;;;0.60;99.90;;;;;;4806040;29;20133;-76
2022/01/11 03:05:52;;;;;;;48.50;24.42;;;0.40;99.90;;;;;;4805548;29;20058;-76
2022/01/11 03:08:18;;;;;;;48.15;24.75;;;0.50;99.90;;;;;;4805682;29;20553;-76
2022/01/11 03:10:44;;;;;;;55.22;26.52;;;0.40;99.90;;;;;;4805460;29;20504;-76
2022/01/11 03:13:10;;;;;;;51.22;27.60;;;0.50;99.90;;;;;;4805690;29;20494;-76
2022/01/11 03:15:37;;;;;;;54.70;27.42;;;0.60;99.90;;;;;;4804133;29;20057;-76
2022/01/11 03:18:04;;;;;;;51.00;28.45;;;0.40;99.90;;;;;;4789841;29;20132;-77
2022/01/11 03:20:30;;;;;;;53.03;27.55;;;0.50;99.90;;;;;;4804194;29;20046;-77
2022/01/11 03:22:56;;;;;;;54.78;27.70;;;0.50;99.90;;;;;;4804872;29;20406;-76
2022/01/11 03:25:23;;;;;;;59.30;28.23;;;0.50;99.90;;;;;;4805595;29;20047;-76
2022/01/11 03:27:49;;;;;;;60.13;28.70;;;0.50;99.90;;;;;;4805496;29;20507;-76
2022/01/11 03:30:14;;;;;;;51.20;27.67;;;0.60;99.90;;;;;;4805992;29;20147;-76
2022/01/11 03:32:40;;;;;;;50.58;27.40;;;0.50;99.90;;;;;;4804412;29;20371;-76
2022/01/11 03:35:07;;;;;;;54.03;27.00;;;0.60;99.90;;;;;;4805512;29;20524;-77
2022/01/11 03:37:32;;;;;;;52.65;28.10;;;0.50;99.90;;;;;;4789183;29;20050;-76
2022/01/11 03:39:58;;;;;;;50.22;27.13;;;0.50;99.90;;;;;;4805604;29;20394;-76
2022/01/11 03:42:24;;;;;;;57.47;27.98;;;0.50;99.90;;;;;;4805605;29;20131;-76
2022/01/11 03:44:50;;;;;;;50.55;27.20;;;0.50;99.90;;;;;;4804906;29;20055;-76
2022/01/11 03:47:16;;;;;;;57.05;27.75;;;0.50;99.90;;;;;;4804059;29;20540;-76
2022/01/11 03:49:42;;;;;;;52.47;27.98;;;0.60;99.90;;;;;;4804882;29;20050;-76
2022/01/11 03:52:08;;;;;;;55.22;28.27;;;0.50;99.90;;;;;;4804227;29;20054;-76
2022/01/11 03:54:50;;;;;;;56.40;28.63;;;0.50;99.90;;;;;;4804776;29;20051;-77
2022/01/11 03:57:16;;;;;;;55.33;29.17;;;0.60;99.90;;;;;;4804383;29;20059;-76
2022/01/11 03:59:42;;;;;;;51.97;26.80;;;0.60;99.90;;;;;;4804002;29;20066;-76
2022/01/11 04:02:07;;;;;;;55.33;26.20;;;0.60;99.90;;;;;;4803712;29;20430;-76
2022/01/11 04:04:33;;;;;;;52.60;26.45;;;0.60;99.90;;;;;;4803095;29;20498;-77
2022/01/11 04:07:00;;;;;;;64.43;26.38;;;0.50;99.90;;;;;;4805120;29;20050;-76
2022/01/11 04:09:25;;;;;;;50.30;25.42;;;0.50;99.90;;;;;;4804033;29;20417;-76
2022/01/11 04:11:51;;;;;;;53.20;25.83;;;0.60;99.90;;;;;;4804781;29;20054;-76
2022/01/11 04:14:17;;;;;;;52.90;25.63;;;0.50;99.90;;;;;;4804985;29;20076;-76
2022/01/11 04:16:43;;;;;;;59.97;26.33;;;0.50;99.90;;;;;;4804691;29;20101;-76
2022/01/11 04:19:08;;;;;;;53.85;25.77;;;0.50;99.90;;;;;;4805111;29;20046;-76
2022/01/11 04:21:34;;;;;;;52.00;26.73;;;0.50;99.90;;;;;;4805100;29;20103;-76
2022/01/11 04:23:59;;;;;;;48.65;26.25;;;0.60;99.90;;;;;;4804994;29;20458;-76
2022/01/11 04:26:25;;;;;;;50.15;25.17;;;0.50;99.90;;;;;;4803770;29;20055;-76
2022/01/11 04:28:51;;;;;;;50.83;25.27;;;0.60;99.90;;;;;;4804538;29;20055;-76
2022/01/11 04:31:16;;;;;;;55.25;25.80;;;0.50;99.90;;;;;;4804968;29;20051;-76
2022/01/11 04:33:43;;;;;;;55.22;25.58;;;0.40;99.90;;;;;;4803324;29;20450;-77
2022/01/11 04:36:09;;;;;;;47.83;25.35;;;0.50;99.90;;;;;;4803804;29;20100;-76
2022/01/11 04:38:35;;;;;;;52.92;25.10;;;0.50;99.90;;;;;;4803529;29;20498;-76
2022/01/11 04:41:01;;;;;;;49.65;25.42;;;0.60;99.90;;;;;;4803158;29;20053;-76
2022/01/11 04:43:26;;;;;;;44.97;24.67;;;0.60;99.90;;;;;;4805159;29;20478;-76
2022/01/11 04:45:52;;;;;;;45.58;25.10;;;0.50;99.90;;;;;;4804469;29;20053;-76
2022/01/11 04:48:21;;;;;;;45.05;24.35;;;0.50;99.90;;;;;;4804975;29;20051;-76
2022/01/11 04:50:47;;;;;;;45.90;23.33;;;0.50;99.90;;;;;;4804395;29;20055;-76
2022/01/11 04:53:13;;;;;;;44.65;24.20;;;0.60;99.90;;;;;;4803549;29;20414;-76
2022/01/11 04:55:39;;;;;;;43.08;24.15;;;0.60;99.90;;;;;;4788657;29;20046;-76
2022/01/11 04:58:04;;;;;;;46.42;25.15;;;0.60;99.90;;;;;;4804155;29;20054;-76
2022/01/11 05:00:31;;;;;;;44.38;23.77;;;0.60;99.90;;;;;;4804373;29;20076;-76
2022/01/11 05:02:58;;;;;;;43.47;23.13;;;0.60;99.90;;;;;;4802914;29;20071;-76
2022/01/11 05:05:26;;;;;;;45.17;23.58;;;0.50;99.90;;;;;;4803559;29;20126;-76
2022/01/11 05:07:51;;;;;;;44.78;23.20;;;0.60;99.90;;;;;;4803871;29;20150;-76
2022/01/11 05:10:17;;;;;;;43.75;24.17;;;0.60;99.90;;;;;;4788498;29;20130;-76
2022/01/11 05:12:43;;;;;;;43.72;24.27;;;0.50;99.90;;;;;;4804153;29;20047;-77
2022/01/11 05:15:09;;;;;;;44.97;23.85;;;0.50;99.90;;;;;;4805373;29;20478;-76
2022/01/11 05:17:36;;;;;;;41.72;23.20;;;0.50;99.90;;;;;;4807642;29;20051;-76
2022/01/11 05:20:02;;;;;;;44.08;23.33;;;0.50;99.90;;;;;;4807350;29;20101;-76
2022/01/11 05:22:28;;;;;;;46.50;24.23;;;0.60;99.90;;;;;;4806631;29;20108;-76
2022/01/11 05:24:53;;;;;;;43.53;23.38;;;0.50;99.90;;;;;;4807204;29;20050;-76
2022/01/11 05:27:19;;;;;;;42.05;23.05;;;0.50;99.90;;;;;;4807644;29;20402;-76
2022/01/11 05:29:45;;;;;;;45.00;23.58;;;0.40;99.90;;;;;;4807069;29;20058;-77
2022/01/11 05:32:10;;;;;;;42.88;21.95;;;0.50;99.90;;;;;;4807434;29;20116;-76
2022/01/11 05:34:36;;;;;;;40.15;22.88;;;0.70;99.90;;;;;;4806202;29;20055;-76
2022/01/11 05:37:03;;;;;;;41.88;22.10;;;0.70;99.90;;;;;;4807025;29;20074;-77
2022/01/11 05:39:28;;;;;;;43.95;23.60;;;0.60;99.90;;;;;;4807289;29;20050;-77
2022/01/11 05:41:54;;;;;;;39.45;23.15;;;0.60;99.90;;;;;;4806923;29;20050;-77
2022/01/11 05:44:20;;;;;;;41.22;23.02;;;0.70;99.90;;;;;;4807253;29;20078;-80
2022/01/11 05:46:45;;;;;;;40.30;23.38;;;0.70;99.90;;;;;;4806190;29;20429;-79
2022/01/11 05:49:11;;;;;;;40.45;22.98;;;0.60;99.90;;;;;;4805465;29;20047;-80
2022/01/11 05:51:37;;;;;;;41.80;23.27;;;0.80;99.90;;;;;;4807180;29;20414;-78
2022/01/11 05:54:02;;;;;;;43.58;23.88;;;0.70;99.90;;;;;;4806509;29;20051;-77
2022/01/11 05:56:28;;;;;;;44.90;23.73;;;0.70;99.90;;;;;;4807282;29;20133;-76
2022/01/11 05:58:54;;;;;;;41.60;24.08;;;0.70;99.90;;;;;;4806738;29;20051;-79
2022/01/11 06:01:20;;;;;;;39.03;22.80;;;0.70;99.90;;;;;;4805679;29;20511;-76
2022/01/11 06:03:45;;;;;;;38.47;22.67;;;0.70;99.90;;;;;;4805869;29;20138;-76
2022/01/11 06:06:11;;;;;;;41.88;23.05;;;0.70;99.90;;;;;;4806150;29;20192;-75
2022/01/11 06:08:37;;;;;;;40.80;23.70;;;0.70;99.90;;;;;;4805045;29;20133;-75
2022/01/11 06:11:03;;;;;;;38.35;23.00;;;0.70;99.90;;;;;;4804879;29;20478;-76
2022/01/11 06:13:29;;;;;;;39.00;22.45;;;0.70;99.90;;;;;;4807203;29;20047;-76
2022/01/11 06:15:54;;;;;;;38.67;22.42;;;0.60;99.90;;;;;;4806478;29;20102;-75
2022/01/11 06:18:20;;;;;;;36.25;22.90;;;0.70;99.90;;;;;;4806852;29;20061;-75
2022/01/11 06:20:45;;;;;;;36.58;22.63;;;0.50;99.90;;;;;;4806559;29;20142;-75
2022/01/11 06:23:11;;;;;;;45.38;22.92;;;0.50;99.90;;;;;;4804420;29;20125;-76
2022/01/11 06:25:37;;;;;;;38.22;21.67;;;0.60;99.90;;;;;;4792691;29;20398;-76
2022/01/11 06:28:03;;;;;;;37.33;21.92;;;0.60;99.90;;;;;;4790393;29;20156;-75
2022/01/11 06:30:29;;;;;;;36.92;21.90;;;0.60;99.90;;;;;;4791988;29;20059;-75
2022/01/11 06:32:55;;;;;;;39.03;23.17;;;0.60;99.90;;;;;;4792364;29;20047;-75
2022/01/11 06:35:21;;;;;;;37.88;22.67;;;0.50;99.90;;;;;;4792306;29;20392;-76
2022/01/11 06:37:47;;;;;;;37.83;22.38;;;0.50;99.90;;;;;;4791496;29;20055;-75
2022/01/11 06:40:14;;;;;;;39.83;22.38;;;0.50;99.90;;;;;;4792463;29;20441;-75
2022/01/11 06:42:39;;;;;;;36.97;21.88;;;0.50;99.90;;;;;;4796095;29;20410;-74
2022/01/11 06:45:05;;;;;;;36.65;21.63;;;0.50;99.90;;;;;;4805610;29;20047;-75
2022/01/11 06:47:31;;;;;;;35.83;20.90;;;0.40;99.90;;;;;;4806449;29;20055;-74
2022/01/11 06:49:57;;;;;;;41.50;22.92;;;0.40;99.90;;;;;;4806266;29;20047;-75
2022/01/11 06:52:22;;;;;;;33.92;20.55;;;0.40;99.90;;;;;;4806470;29;20051;-74
2022/01/11 06:54:48;;;;;;;35.20;21.52;;;0.40;99.90;;;;;;4806574;29;20046;-74
2022/01/11 06:57:14;;;;;;;35.92;21.13;;;0.30;99.90;;;;;;4806011;29;20047;-74
2022/01/11 06:59:39;;;;;;;36.38;20.67;;;0.30;99.90;;;;;;4806398;29;20070;-75
2022/01/11 07:02:05;;;;;;;39.17;21.08;;;0.40;99.90;;;;;;4805737;29;20055;-75
2022/01/11 07:04:31;;;;;;;37.15;21.63;;;0.30;99.90;;;;;;4806296;29;20107;-74
2022/01/11 07:06:57;;;;;;;37.25;21.10;;;0.30;99.90;;;;;;4806254;29;20058;-74
2022/01/11 07:09:23;;;;;;;38.53;21.20;;;0.30;99.90;;;;;;4805737;29;20055;-75
2022/01/11 07:11:48;;;;;;;36.35;20.65;;;0.20;99.90;;;;;;4803885;29;20066;-74
2022/01/11 07:14:14;;;;;;;36.80;21.08;;;0.20;99.90;;;;;;4804440;29;20046;-74
2022/01/11 07:16:41;;;;;;;34.83;20.08;;;0.30;99.90;;;;;;4795408;29;20042;-76
2022/01/11 07:19:07;;;;;;;33.17;20.35;;;0.20;99.90;;;;;;4802779;29;20091;-75
2022/01/11 07:21:34;;;;;;;35.13;20.85;;;0.20;99.90;;;;;;4805653;29;20489;-74
2022/01/11 07:24:01;;;;;;;33.17;19.38;;;0.30;99.90;;;;;;4805496;29;20051;-77
2022/01/11 07:26:27;;;;;;;36.35;19.88;;;0.30;99.90;;;;;;4798797;29;20039;-74
2022/01/11 07:28:53;;;;;;;30.83;19.02;;;0.30;99.90;;;;;;4796288;29;20057;-74
2022/01/11 07:31:18;;;;;;;32.60;19.40;;;0.20;99.90;;;;;;4793204;29;20061;-75
2022/01/11 07:33:44;;;;;;;34.58;19.20;;;0.30;99.90;;;;;;4801601;29;20049;-74
2022/01/11 07:36:10;;;;;;;34.85;19.77;;;0.20;99.90;;;;;;4805138;29;20038;-75
2022/01/11 07:38:35;;;;;;;33.70;19.52;;;0.30;99.90;;;;;;4798074;29;20051;-74
2022/01/11 07:41:01;;;;;;;32.40;19.20;;;0.30;99.90;;;;;;4797179;29;20053;-75
2022/01/11 07:43:26;;;;;;;31.85;18.73;;;0.30;99.90;;;;;;4792202;29;20086;-74
2022/01/11 07:45:52;;;;;;;32.33;18.40;;;0.30;99.90;;;;;;4803619;29;20050;-75
2022/01/11 07:48:17;;;;;;;30.13;19.38;;;0.30;99.90;;;;;;4804878;29;20472;-74
2022/01/11 07:50:43;;;;;;;29.42;18.48;;;0.20;99.90;;;;;;4805578;29;20430;-74
2022/01/11 07:53:09;;;;;;;28.40;18.35;;;0.30;99.90;;;;;;4805005;29;20062;-74
2022/01/11 07:55:34;;;;;;;32.65;19.30;;;0.30;99.90;;;;;;4805746;29;20054;-74
2022/01/11 07:58:00;;;;;;;32.38;19.05;;;0.30;99.90;;;;;;4805822;29;20057;-74
2022/01/11 08:00:26;;;;;;;29.20;19.35;;;0.40;99.90;;;;;;4805425;29;20058;-74
2022/01/11 08:02:51;;;;;;;31.92;19.05;;;0.40;99.90;;;;;;4805502;29;20066;-74
2022/01/11 08:05:18;;;;;;;30.73;18.88;;;0.40;99.90;;;;;;4805021;29;20050;-74
2022/01/11 08:07:44;;;;;;;28.65;18.23;;;0.40;99.90;;;;;;4805456;29;20092;-74
2022/01/11 08:10:11;;;;;;;32.42;19.60;;;0.30;99.90;;;;;;4788960;29;20050;-74
2022/01/11 08:12:38;;;;;;;30.67;18.13;;;0.40;99.90;;;;;;4803896;29;20520;-74
2022/01/11 08:15:04;;;;;;;29.33;17.23;;;0.50;99.90;;;;;;4804527;29;20099;-74
2022/01/11 08:17:30;;;;;;;28.98;17.10;;;0.50;99.90;;;;;;4790198;29;20051;-74
2022/01/11 08:19:56;;;;;;;29.52;18.40;;;0.50;99.90;;;;;;4804268;29;20054;-74
2022/01/11 08:22:22;;;;;;;29.77;18.02;;;0.50;99.90;;;;;;4804122;29;20059;-75
2022/01/11 08:24:48;;;;;;;28.65;17.17;;;0.50;99.90;;;;;;4803728;29;20053;-75
2022/01/11 08:27:13;;;;;;;28.42;16.85;;;0.60;99.90;;;;;;4799256;29;20185;-75
2022/01/11 08:29:39;;;;;;;25.77;16.90;;;0.60;99.90;;;;;;4794222;29;20049;-75
2022/01/11 08:32:06;;;;;;;31.33;17.90;;;0.60;99.90;;;;;;4793167;29;20056;-75
2022/01/11 08:34:32;;;;;;;29.20;17.77;;;0.60;99.90;;;;;;4800324;29;20050;-75
2022/01/11 08:36:59;;;;;;;28.63;16.10;;;0.60;99.90;;;;;;4804959;29;20046;-75
2022/01/11 08:39:25;;;;;;;25.50;16.83;;;0.70;99.90;;;;;;4797801;29;20504;-75
2022/01/11 08:41:51;;;;;;;25.67;16.98;;;0.60;99.90;;;;;;4795489;29;20084;-75
2022/01/11 08:44:19;;;;;;;27.20;16.73;;;0.60;99.90;;;;;;4790185;29;20079;-75
2022/01/11 08:46:45;;;;;;;26.92;15.57;;;0.60;99.90;;;;;;4802432;29;20062;-74
2022/01/11 08:49:12;;;;;;;26.05;15.80;;;0.60;99.90;;;;;;4804533;29;20050;-74
2022/01/11 08:51:38;;;;;;;24.80;15.75;;;0.60;99.90;;;;;;4792348;29;20090;-75
2022/01/11 08:54:04;;;;;;;24.75;15.50;;;0.60;99.90;;;;;;4808426;29;20139;-74
2022/01/11 08:56:30;;;;;;;25.08;15.45;;;0.60;99.90;;;;;;4808118;29;20051;-74
2022/01/11 08:58:56;;;;;;;24.27;15.32;;;0.60;99.90;;;;;;4807550;29;20055;-74
2022/01/11 09:01:21;;;;;;;24.42;15.25;;;0.70;99.90;;;;;;4807800;29;20046;-74
2022/01/11 09:03:47;;;;;;;21.63;14.68;;;0.60;99.90;;;;;;4808489;29;20149;-74
2022/01/11 09:06:13;;;;;;;27.40;16.08;;;0.60;99.90;;;;;;4807143;29;20082;-74
2022/01/11 09:08:38;;;;;;;22.02;14.80;;;0.50;99.90;;;;;;4807884;29;20071;-74
2022/01/11 09:11:05;;;;;;;25.10;15.70;;;0.50;99.90;;;;;;4808198;29;20085;-74
2022/01/11 09:13:32;;;;;;;24.88;15.25;;;0.60;99.90;;;;;;4807706;29;20133;-74
2022/01/11 09:15:57;;;;;;;23.85;15.38;;;0.50;99.90;;;;;;4806704;29;20062;-74
2022/01/11 09:18:23;;;;;;;24.13;15.35;;;0.50;99.90;;;;;;4805368;29;20046;-74
2022/01/11 09:20:48;;;;;;;23.00;14.75;;;0.50;99.90;;;;;;4807289;29;20414;-74
2022/01/11 09:23:14;;;;;;;24.65;15.77;;;0.60;99.90;;;;;;4805971;29;20410;-74
2022/01/11 09:25:41;;;;;;;25.17;15.82;;;0.60;99.90;;;;;;4806290;29;20086;-74
2022/01/11 09:28:06;;;;;;;24.00;14.50;;;0.70;99.90;;;;;;4805731;29;20578;-74
2022/01/11 09:30:32;;;;;;;22.85;15.00;;;0.70;99.90;;;;;;4806320;29;20054;-74
2022/01/11 09:32:58;;;;;;;23.75;15.30;;;0.70;99.90;;;;;;4805905;29;20059;-74
2022/01/11 09:35:23;;;;;;;23.65;16.15;;;0.60;99.90;;;;;;4800451;29;20049;-74
2022/01/11 09:37:49;;;;;;;24.58;16.00;;;0.70;99.90;;;;;;4788216;30;20063;-74
2022/01/11 09:40:15;;;;;;;24.55;16.63;;;0.70;99.90;;;;;;4800123;29;20062;-74
2022/01/11 09:42:41;;;;;;;25.88;15.95;;;0.70;99.90;;;;;;4806990;29;20059;-74
2022/01/11 09:45:07;;;;;;;24.17;16.17;;;0.70;99.90;;;;;;4803735;29;20051;-74
2022/01/11 09:47:33;;;;;;;24.17;15.82;;;0.70;99.90;;;;;;4793832;29;20050;-74
2022/01/11 09:49:59;;;;;;;27.02;16.98;;;0.70;99.90;;;;;;4798237;29;20083;-74
2022/01/11 09:52:26;;;;;;;24.90;16.05;;;0.70;99.90;;;;;;4799660;29;20509;-74
2022/01/11 09:54:51;;;;;;;25.52;16.60;;;0.80;99.90;;;;;;4807137;29;20101;-74
2022/01/11 09:57:17;;;;;;;26.38;17.17;;;0.90;99.90;;;;;;4803450;29;20055;-74
2022/01/11 09:59:43;;;;;;;27.02;17.67;;;0.90;99.90;;;;;;4795704;29;20043;-74
2022/01/11 10:02:08;;;;;;;27.67;17.60;;;0.90;99.90;;;;;;4796400;29;20070;-74
2022/01/11 10:04:35;;;;;;;27.88;18.17;;;1.00;99.90;;;;;;4802055;29;20141;-74
2022/01/11 10:07:05;;;;;;;29.73;18.42;;;1.10;99.90;;;;;;4805838;29;20401;-74
2022/01/11 10:09:32;;;;;;;30.95;19.13;;;1.00;99.90;;;;;;4805871;29;20054;-74
2022/01/11 10:11:59;;;;;;;28.88;18.20;;;1.00;99.90;;;;;;4806136;29;20055;-74
2022/01/11 10:14:32;;;;;;;28.55;19.17;;;1.10;99.90;;;;;;4806760;29;20043;-75
2022/01/11 10:17:15;;;;;;;29.52;18.70;;;1.10;99.90;;;;;;4807123;29;20120;-74
2022/01/11 10:19:42;;;;;;;29.83;18.15;;;1.10;99.90;;;;;;4806836;29;20046;-74
2022/01/11 10:22:13;;;;;;;29.83;18.67;;;1.20;99.90;;;;;;4806971;29;20050;-74
2022/01/11 10:24:50;;;;;;;28.55;18.73;;;1.20;99.90;;;;;;4805368;29;20443;-74
2022/01/11 10:27:30;;;;;;;31.15;19.70;;;1.20;99.90;;;;;;4807106;29;20058;-74
2022/01/11 10:29:56;;;;;;;32.88;19.13;;;1.20;99.90;;;;;;4805739;29;20119;-74
2022/01/11 10:32:30;;;;;;;28.48;19.13;;;1.20;99.90;;;;;;4805543;29;20138;-74
2022/01/11 10:35:04;;;;;;;31.70;19.67;;;1.20;99.90;;;;;;4805855;29;20055;-74
2022/01/11 10:37:33;;;;;;;28.30;18.63;;;1.10;99.90;;;;;;4805326;29;20051;-74
2022/01/11 10:40:19;;;;;;;30.08;19.23;;;1.20;99.90;;;;;;4799699;29;20055;-74
2022/01/11 10:42:50;;;;;;;28.92;18.20;;;1.10;99.90;;;;;;4804607;29;20059;-74
2022/01/11 10:45:26;;;;;;;31.85;19.77;;;1.20;99.90;;;;;;4805868;29;20053;-74
2022/01/11 10:47:54;;;;;;;33.90;20.45;;;1.10;99.90;;;;;;4804732;29;20055;-74
2022/01/11 10:50:28;;;;;;;30.58;19.85;;;1.20;99.90;;;;;;4801592;29;20128;-74
2022/01/11 10:52:58;;;;;;;29.95;19.65;;;1.30;99.90;;;;;;4795105;29;20047;-74
2022/01/11 10:55:28;;;;;;;33.35;19.67;;;1.20;99.90;;;;;;4794385;29;20079;-74
2022/01/11 10:57:59;;;;;;;33.30;19.55;;;1.20;99.90;;;;;;4787941;29;20092;-74
2022/01/11 11:00:44;;;;;;;31.13;20.30;;;1.20;99.90;;;;;;4805127;29;20058;-74
2022/01/11 11:03:15;;;;;;;31.05;18.75;;;1.30;99.90;;;;;;4795742;29;20396;-74
2022/01/11 11:05:47;;;;;;;31.65;19.92;;;1.50;99.90;;;;;;4801357;29;20129;-74
2022/01/11 11:08:23;;;;;;;32.20;19.95;;;1.50;99.90;;;;;;4789837;29;20549;-74
2022/01/11 11:10:55;;;;;;;32.75;19.52;;;1.60;99.90;;;;;;4805752;29;20425;-74
2022/01/11 11:13:32;;;;;;;29.05;19.10;;;1.70;99.90;;;;;;4805414;29;20054;-74
2022/01/11 11:16:00;;;;;;;29.15;19.17;;;2.00;99.90;;;;;;4805053;29;20125;-74
2022/01/11 11:18:37;;;;;;;28.27;19.33;;;2.10;99.90;;;;;;4804827;29;20063;-74
2022/01/11 11:21:24;;;;;;;28.55;18.02;;;2.10;99.90;;;;;;4805144;29;20058;-75
2022/01/11 11:23:51;;;;;;;28.65;18.38;;;2.20;99.90;;;;;;4805586;29;20446;-74
2022/01/11 11:26:17;;;;;;;26.85;17.60;;;2.30;99.90;;;;;;4805635;29;20529;-74
2022/01/11 11:28:43;;;;;;;24.65;17.65;;;2.40;99.90;;;;;;4804434;29;20054;-74
2022/01/11 11:31:09;;;;;;;28.27;18.60;;;2.60;99.90;;;;;;4806130;29;20054;-75
2022/01/11 11:33:38;;;;;;;27.80;18.23;;;2.50;99.90;;;;;;4805545;29;20090;-75
2022/01/11 11:36:05;;;;;;;29.05;17.88;;;2.60;99.90;;;;;;4789773;29;20051;-75
2022/01/11 11:38:33;;;;;;;27.90;17.40;;;2.70;99.90;;;;;;4789841;29;20062;-75
2022/01/11 11:41:00;;;;;;;26.67;17.83;;;2.80;99.90;;;;;;4804129;29;20062;-75
2022/01/11 11:43:25;;;;;;;28.70;19.58;;;2.90;99.90;;;;;;4804424;29;20058;-75
2022/01/11 11:45:51;;;;;;;28.05;18.75;;;2.90;99.90;;;;;;4804298;29;20057;-74
2022/01/11 11:48:18;;;;;;;26.85;18.95;;;3.00;99.90;;;;;;4805779;29;20166;-75
2022/01/11 11:50:49;;;;;;;27.02;17.15;;;3.10;99.90;;;;;;4804288;29;20053;-75
2022/01/11 11:53:35;;;;;;;25.33;18.35;;;3.10;99.90;;;;;;4805660;29;20161;-75
2022/01/11 11:56:19;;;;;;;25.90;17.92;;;3.20;99.90;;;;;;4804197;29;20042;-75
2022/01/11 11:58:56;;;;;;;25.90;17.88;;;3.30;99.90;;;;;;4805241;29;20058;-75
2022/01/11 12:01:41;;;;;;;24.45;17.55;;;3.30;99.90;;;;;;4805701;29;20051;-75
2022/01/11 12:04:09;;;;;;;23.73;17.50;;;3.40;99.90;;;;;;4805577;29;20090;-75
2022/01/11 12:06:34;;;;;;;25.95;18.30;;;3.40;99.90;;;;;;4805229;29;20059;-75
2022/01/11 12:09:05;;;;;;;25.75;18.13;;;3.50;99.90;;;;;;4805023;29;20434;-75
2022/01/11 12:11:35;;;;;;;;;;;3.60;99.90;;;;;;4775568;29;20058;-74
2022/01/11 12:14:00;;;;;;;25.15;16.65;;;3.60;99.90;;;;;;4804809;29;19929;-74
2022/01/11 12:16:26;;;;;;;24.98;17.25;;;3.60;99.90;;;;;;4805331;29;20470;-75
2022/01/11 12:18:57;;;;;;;23.42;15.93;;;3.70;99.90;;;;;;4804798;29;20054;-75
2022/01/11 12:21:24;;;;;;;22.60;16.52;;;3.80;99.90;;;;;;4805513;29;20406;-74
2022/01/11 12:23:54;;;;;;;25.27;17.13;;;3.80;99.90;;;;;;4804161;29;20050;-74
2022/01/11 12:26:25;;;;;;;25.67;16.38;;;3.80;99.90;;;;;;4807617;29;20125;-75
2022/01/11 12:29:09;;;;;;;22.10;15.70;;;3.80;99.90;;;;;;4808227;29;20413;-76
2022/01/11 12:31:44;;;;;;;25.48;16.13;;;3.90;99.90;;;;;;4808956;29;20055;-75
2022/01/11 12:34:11;;;;;;;23.40;16.10;;;3.90;99.90;;;;;;4808975;29;20410;-75
2022/01/11 12:36:53;;;;;;;23.73;16.45;;;3.90;99.90;;;;;;4809039;29;20438;-75